< < Back
Terminal Aerodrome Forecast


Current Version              Previous Versions:   1  2  3  4  5  6  7  8  9  

Terminal Aerodrome Forecast

354
FTUS44 KBMX 220700 AAA
TAFTCL
TAF AMD
KTCL 220702Z 2207/2306 33005KT P6SM VCTS BKN050CB
      TEMPO 2207/2208 5SM -TSRA SCT012 BKN035CB
     FM220800 36012G16KT P6SM BKN050
     FM221500 36012G16KT P6SM FEW250
     FM230100 VRB03KT P6SM SKC=



Latest METAR

784
SAUS70 KWBC 221400 RRG
MTRTCL
METAR KTCL 221353Z 02005KT 10SM CLR 23/13 A3010 RMK AO2 SLP189
T02280128


USA.gov is the U.S. government's official web portal to all federal, state and local government web resources and services.